createdAt,value
2023-04-24T00:01:03.222Z,4.40
2023-04-24T00:03:30.260Z,4.30
2023-04-24T00:05:56.918Z,4.53
2023-04-24T00:08:24.792Z,4.35
2023-04-24T00:10:51.521Z,4.70
2023-04-24T00:13:17.984Z,4.35
2023-04-24T00:15:44.518Z,5.68
2023-04-24T00:18:10.972Z,4.70
2023-04-24T00:20:37.525Z,4.57
2023-04-24T00:23:04.179Z,4.70
2023-04-24T00:25:30.651Z,5.22
2023-04-24T00:27:57.198Z,5.00
2023-04-24T00:30:23.691Z,4.57
2023-04-24T00:32:50.366Z,4.80
2023-04-24T00:35:17.055Z,4.60
2023-04-24T00:37:43.631Z,5.53
2023-04-24T00:40:10.776Z,5.05
2023-04-24T00:42:37.497Z,4.90
2023-04-24T00:45:04.373Z,5.20
2023-04-24T00:47:31.265Z,5.25
2023-04-24T00:49:57.763Z,5.55
2023-04-24T00:52:25.353Z,5.38
2023-04-24T00:54:51.943Z,5.40
2023-04-24T00:57:18.643Z,5.07
2023-04-24T00:59:45.301Z,5.22
2023-04-24T01:02:12.565Z,5.40
2023-04-24T01:04:39.345Z,4.80
2023-04-24T01:07:11.461Z,4.78
2023-04-24T01:09:43.108Z,5.20
2023-04-24T01:12:10.275Z,5.30
2023-04-24T01:14:37.425Z,5.10
2023-04-24T01:17:04.096Z,5.50
2023-04-24T01:19:30.567Z,5.63
2023-04-24T01:21:59.662Z,5.40
2023-04-24T01:24:26.238Z,5.00
2023-04-24T01:26:52.853Z,5.35
2023-04-24T01:29:21.274Z,5.50
2023-04-24T01:31:48.099Z,5.00
2023-04-24T01:34:15.268Z,4.95
2023-04-24T01:36:42.829Z,5.53
2023-04-24T01:39:09.436Z,6.00
2023-04-24T01:41:36.156Z,6.18
2023-04-24T01:44:02.829Z,5.75
2023-04-24T01:46:29.480Z,6.10
2023-04-24T01:48:57.195Z,5.88
2023-04-24T01:51:23.938Z,5.80
2023-04-24T01:53:50.517Z,5.63
2023-04-24T01:56:17.025Z,5.90
2023-04-24T01:58:44.104Z,6.30
2023-04-24T02:01:16.798Z,5.97
2023-04-24T02:03:43.409Z,6.05
2023-04-24T02:06:10.101Z,6.43
2023-04-24T02:08:36.631Z,6.18
2023-04-24T02:11:03.383Z,6.03
2023-04-24T02:13:29.891Z,6.70
2023-04-24T02:15:56.438Z,6.60
2023-04-24T02:18:23.736Z,6.78
2023-04-24T02:20:50.321Z,7.65
2023-04-24T02:23:16.853Z,8.20
2023-04-24T02:25:43.360Z,9.00
2023-04-24T02:28:09.830Z,8.27
2023-04-24T02:30:36.402Z,8.43
2023-04-24T02:33:02.936Z,8.95
2023-04-24T02:35:29.483Z,9.20
2023-04-24T02:37:56.080Z,9.18
2023-04-24T02:40:22.638Z,10.07
2023-04-24T02:42:49.062Z,9.70
2023-04-24T02:45:15.641Z,9.95
2023-04-24T02:47:42.184Z,10.23
2023-04-24T02:50:09.012Z,10.48
2023-04-24T02:52:35.625Z,9.98
2023-04-24T02:55:02.208Z,10.05
2023-04-24T02:57:28.811Z,10.68
2023-04-24T02:59:55.359Z,10.40
2023-04-24T03:02:22.035Z,11.43
2023-04-24T03:04:51.497Z,10.35
2023-04-24T03:07:18.220Z,10.60
2023-04-24T03:09:45.061Z,10.88
2023-04-24T03:12:11.677Z,11.35
2023-04-24T03:14:38.166Z,10.60
2023-04-24T03:17:04.783Z,10.93
2023-04-24T03:19:31.392Z,10.73
2023-04-24T03:21:57.919Z,10.75
2023-04-24T03:24:24.447Z,12.27
2023-04-24T03:26:50.901Z,11.75
2023-04-24T03:29:17.431Z,11.40
2023-04-24T03:31:44.159Z,11.13
2023-04-24T03:34:11.109Z,11.63
2023-04-24T03:36:37.616Z,12.48
2023-04-24T03:39:04.709Z,11.57
2023-04-24T03:41:31.298Z,12.18
2023-04-24T03:43:57.826Z,11.65
2023-04-24T03:46:24.425Z,11.93
2023-04-24T03:48:51.029Z,12.13
2023-04-24T03:51:17.585Z,11.02
2023-04-24T03:53:44.084Z,11.48
2023-04-24T03:56:10.688Z,11.38
2023-04-24T03:58:37.170Z,12.15
2023-04-24T04:01:03.892Z,12.60
2023-04-24T04:03:30.771Z,13.07
2023-04-24T04:05:57.513Z,12.65
2023-04-24T04:08:24.036Z,13.40
2023-04-24T04:10:50.694Z,12.52
2023-04-24T04:13:17.151Z,12.27
2023-04-24T04:15:44.448Z,11.13
2023-04-24T04:18:11.054Z,13.13
2023-04-24T04:20:37.608Z,12.48
2023-04-24T04:23:04.141Z,12.50
2023-04-24T04:25:30.759Z,13.35
2023-04-24T04:27:59.138Z,11.98
2023-04-24T04:30:25.656Z,12.13
2023-04-24T04:32:52.316Z,12.10
2023-04-24T04:35:18.996Z,12.35
2023-04-24T04:37:45.673Z,12.52
2023-04-24T04:40:12.960Z,12.10
2023-04-24T04:42:42.559Z,13.50
2023-04-24T04:45:12.584Z,12.50
2023-04-24T04:47:39.269Z,12.50
2023-04-24T04:50:06.411Z,13.55
2023-04-24T04:52:32.911Z,13.02
2023-04-24T04:54:59.396Z,12.88
2023-04-24T04:57:26.148Z,13.07
2023-04-24T04:59:52.732Z,12.77
2023-04-24T05:02:19.400Z,12.57
2023-04-24T05:04:46.453Z,12.68
2023-04-24T05:07:13.295Z,12.35
2023-04-24T05:09:39.829Z,12.57
2023-04-24T05:12:06.507Z,12.57
2023-04-24T05:14:34.270Z,11.98
2023-04-24T05:17:01.263Z,11.55
2023-04-24T05:19:27.854Z,11.85
2023-04-24T05:21:54.348Z,11.82
2023-04-24T05:24:21.091Z,11.32
2023-04-24T05:26:48.024Z,11.48
2023-04-24T05:29:14.582Z,10.38
2023-04-24T05:31:41.183Z,11.25
2023-04-24T05:34:07.798Z,10.70
2023-04-24T05:36:34.293Z,11.25
2023-04-24T05:39:00.794Z,12.02
2023-04-24T05:41:27.383Z,11.52
2023-04-24T05:43:53.969Z,10.90
2023-04-24T05:46:20.623Z,11.90
2023-04-24T05:48:47.221Z,11.82
2023-04-24T05:51:13.731Z,11.65
2023-04-24T05:53:40.417Z,11.77
2023-04-24T05:56:07.001Z,11.82
2023-04-24T05:58:33.658Z,12.15
2023-04-24T06:01:02.423Z,12.25
2023-04-24T06:03:29.225Z,11.70
2023-04-24T06:05:55.882Z,11.95
2023-04-24T06:08:22.384Z,11.85
2023-04-24T06:10:48.938Z,11.93
2023-04-24T06:13:15.563Z,11.75
2023-04-24T06:15:42.248Z,11.27
2023-04-24T06:18:11.191Z,11.07
2023-04-24T06:20:37.848Z,10.65
2023-04-24T06:23:04.454Z,10.93
2023-04-24T06:25:31.590Z,10.70
2023-04-24T06:27:58.184Z,9.63
2023-04-24T06:30:24.809Z,10.68
2023-04-24T06:32:51.860Z,10.90
2023-04-24T06:35:18.658Z,10.23
2023-04-24T06:37:45.614Z,10.32
2023-04-24T06:40:12.459Z,10.20
2023-04-24T06:42:39.161Z,9.98
2023-04-24T06:45:06.296Z,10.10
2023-04-24T06:47:33.138Z,9.98
2023-04-24T06:49:59.804Z,9.25
2023-04-24T06:52:26.506Z,10.00
2023-04-24T06:54:53.646Z,8.85
2023-04-24T06:57:20.986Z,10.00
2023-04-24T06:59:47.673Z,9.35
2023-04-24T07:02:14.559Z,9.10
2023-04-24T07:04:41.531Z,9.60
2023-04-24T07:07:10.536Z,9.55
2023-04-24T07:09:39.437Z,9.80
2023-04-24T07:12:06.467Z,9.38
2023-04-24T07:14:33.113Z,9.73
2023-04-24T07:16:59.749Z,9.43
2023-04-24T07:19:26.247Z,9.02
2023-04-24T07:21:52.776Z,8.88
2023-04-24T07:24:21.037Z,7.50
2023-04-24T07:26:48.915Z,8.05
2023-04-24T07:29:15.422Z,6.95
2023-04-24T07:31:42.375Z,6.85
2023-04-24T07:34:09.042Z,7.10
2023-04-24T07:36:35.795Z,6.78
2023-04-24T07:39:02.360Z,6.00
2023-04-24T07:41:29.096Z,6.20
2023-04-24T07:43:56.085Z,5.70
2023-04-24T07:46:22.769Z,5.68
2023-04-24T07:48:58.581Z,6.03
2023-04-24T07:51:28.992Z,6.22
2023-04-24T07:53:58.319Z,6.38
2023-04-24T07:56:26.253Z,6.28
2023-04-24T07:58:53.949Z,5.75
2023-04-24T08:01:20.741Z,5.20
2023-04-24T08:03:47.322Z,5.55
2023-04-24T08:06:14.017Z,4.50
2023-04-24T08:08:41.786Z,4.78
2023-04-24T08:11:08.292Z,4.30
2023-04-24T08:13:34.848Z,4.10
2023-04-24T08:16:01.653Z,4.18
2023-04-24T08:18:28.614Z,4.45
2023-04-24T08:20:55.195Z,4.30
2023-04-24T08:23:22.001Z,4.15
2023-04-24T08:25:48.580Z,4.35
2023-04-24T08:28:21.029Z,4.30
2023-04-24T08:30:55.390Z,4.32
2023-04-24T08:33:23.623Z,4.20
2023-04-24T08:35:50.293Z,4.20
2023-04-24T08:38:17.855Z,4.47
2023-04-24T08:40:46.878Z,4.28
2023-04-24T08:43:14.680Z,4.60
2023-04-24T08:45:41.554Z,4.43
2023-04-24T08:48:16.450Z,4.50
2023-04-24T08:50:53.455Z,4.63
2023-04-24T08:53:21.018Z,4.60
2023-04-24T08:55:48.895Z,4.75
2023-04-24T08:58:17.536Z,4.88
2023-04-24T09:00:47.871Z,4.60
2023-04-24T09:03:18.357Z,4.97
2023-04-24T09:05:47.802Z,5.03
2023-04-24T09:08:15.329Z,5.10
2023-04-24T09:10:43.769Z,5.40
2023-04-24T09:13:11.437Z,5.30
2023-04-24T09:15:39.245Z,5.80
2023-04-24T09:18:06.223Z,6.50
2023-04-24T09:20:33.658Z,6.43
2023-04-24T09:23:00.318Z,6.25
2023-04-24T09:25:34.122Z,6.63
2023-04-24T09:28:04.888Z,7.43
2023-04-24T09:30:31.810Z,7.20
2023-04-24T09:33:15.566Z,6.70
2023-04-24T09:35:43.898Z,6.50
2023-04-24T09:38:13.739Z,6.55
2023-04-24T09:40:41.650Z,5.97
2023-04-24T09:43:11.635Z,6.35
2023-04-24T09:45:40.396Z,5.95
2023-04-24T09:48:11.210Z,6.28
2023-04-24T09:50:37.925Z,6.20
2023-04-24T09:53:06.539Z,5.93
2023-04-24T09:55:33.821Z,5.80
2023-04-24T09:58:01.872Z,5.90
2023-04-24T10:00:30.835Z,5.90
2023-04-24T10:03:01.913Z,6.63
2023-04-24T10:05:29.685Z,7.10
2023-04-24T10:08:03.379Z,7.63
2023-04-24T10:10:31.088Z,6.88
2023-04-24T10:12:57.804Z,6.70
2023-04-24T10:15:25.680Z,6.88
2023-04-24T10:17:56.070Z,7.45
2023-04-24T10:20:24.706Z,6.60
2023-04-24T10:22:53.399Z,6.40
2023-04-24T10:25:22.408Z,7.60
2023-04-24T10:27:50.263Z,7.53
2023-04-24T10:30:18.202Z,7.90
2023-04-24T10:32:45.309Z,7.38
2023-04-24T10:35:16.866Z,7.68
2023-04-24T10:37:51.854Z,8.32
2023-04-24T10:40:20.133Z,8.30
2023-04-24T10:42:53.723Z,9.25
2023-04-24T10:45:22.844Z,9.82
2023-04-24T10:48:14.757Z,10.00
2023-04-24T10:50:45.880Z,11.60
2023-04-24T10:53:18.096Z,10.38
2023-04-24T10:55:49.782Z,11.77
2023-04-24T10:58:17.951Z,11.75
2023-04-24T11:00:50.808Z,10.75
2023-04-24T11:03:52.005Z,11.57
2023-04-24T11:06:32.891Z,12.15
2023-04-24T11:09:05.102Z,11.90
2023-04-24T11:11:31.832Z,12.43
2023-04-24T11:13:58.318Z,10.88
2023-04-24T11:16:34.672Z,12.75
2023-04-24T11:19:14.968Z,11.82
2023-04-24T11:21:47.303Z,12.27
2023-04-24T11:24:27.242Z,11.45
2023-04-24T11:26:59.119Z,11.85
2023-04-24T11:29:57.331Z,10.90
2023-04-24T11:32:33.840Z,10.85
2023-04-24T11:35:02.246Z,11.05
2023-04-24T11:37:31.567Z,10.93
2023-04-24T11:39:59.978Z,11.32
2023-04-24T11:42:27.172Z,11.55
2023-04-24T11:44:56.560Z,13.55
2023-04-24T11:47:34.833Z,11.98
2023-04-24T11:50:02.511Z,11.15
2023-04-24T11:52:30.461Z,10.00
2023-04-24T11:54:57.376Z,11.32
2023-04-24T11:57:28.695Z,10.20
2023-04-24T11:59:55.423Z,10.45
2023-04-24T12:02:23.996Z,10.25
2023-04-24T12:04:51.224Z,9.85
2023-04-24T12:07:18.256Z,11.32
2023-04-24T12:09:52.715Z,8.85
2023-04-24T12:12:19.337Z,10.13
2023-04-24T12:14:48.502Z,8.50
2023-04-24T12:17:15.361Z,8.55
2023-04-24T12:19:47.132Z,11.00
2023-04-24T12:22:13.717Z,7.63
2023-04-24T12:25:06.461Z,8.10
2023-04-24T12:27:34.118Z,7.60
2023-04-24T12:30:03.103Z,6.80
2023-04-24T12:32:29.645Z,6.90
2023-04-24T12:34:57.081Z,6.28
2023-04-24T12:37:27.328Z,6.82
2023-04-24T12:40:01.885Z,7.03
2023-04-24T12:42:29.779Z,8.02
2023-04-24T12:45:01.633Z,7.40
2023-04-24T12:47:29.321Z,7.75
2023-04-24T12:49:56.412Z,7.82
2023-04-24T12:52:26.982Z,7.63
2023-04-24T12:55:00.787Z,8.30
2023-04-24T12:57:29.257Z,8.70
2023-04-24T12:59:57.302Z,8.05
2023-04-24T13:02:25.190Z,8.20
2023-04-24T13:04:52.260Z,7.25
2023-04-24T13:07:18.843Z,7.20
2023-04-24T13:09:45.687Z,7.10
2023-04-24T13:12:13.098Z,6.72
2023-04-24T13:14:39.720Z,6.75
2023-04-24T13:17:06.437Z,6.97
2023-04-24T13:19:39.409Z,6.40
2023-04-24T13:22:06.571Z,6.95
2023-04-24T13:24:34.020Z,7.65
2023-04-24T13:27:01.810Z,6.82
2023-04-24T13:29:28.495Z,6.97
2023-04-24T13:31:56.185Z,6.80
2023-04-24T13:34:26.685Z,6.30
2023-04-24T13:36:55.117Z,6.63
2023-04-24T13:39:22.723Z,6.10
2023-04-24T13:41:49.687Z,6.03
2023-04-24T13:44:17.941Z,6.35
2023-04-24T13:46:46.049Z,6.13
2023-04-24T13:49:16.547Z,5.75
2023-04-24T13:51:43.411Z,6.47
2023-04-24T13:54:10.028Z,5.90
2023-04-24T13:56:36.787Z,6.10
2023-04-24T13:59:03.525Z,5.88
2023-04-24T14:01:30.196Z,5.90
2023-04-24T14:03:57.279Z,5.97
2023-04-24T14:06:24.391Z,6.10
2023-04-24T14:08:51.708Z,6.72
2023-04-24T14:11:19.097Z,5.90
2023-04-24T14:13:46.378Z,6.30
2023-04-24T14:16:15.544Z,6.18
2023-04-24T14:18:42.150Z,6.30
2023-04-24T14:21:08.832Z,5.50
2023-04-24T14:23:35.457Z,5.50
2023-04-24T14:26:02.070Z,5.70
2023-04-24T14:28:28.795Z,5.68
2023-04-24T14:30:55.494Z,6.32
2023-04-24T14:33:22.363Z,5.85
2023-04-24T14:35:48.973Z,6.38
2023-04-24T14:38:16.387Z,5.72
2023-04-24T14:43:12.572Z,6.53
2023-04-24T14:45:39.258Z,6.68
2023-04-24T14:48:06.018Z,6.43
2023-04-24T14:50:32.654Z,6.63
2023-04-24T14:52:59.543Z,6.30
2023-04-24T14:55:27.270Z,6.20
2023-04-24T14:57:54.254Z,6.00
2023-04-24T15:00:21.720Z,5.93
2023-04-24T15:02:50.647Z,6.57
2023-04-24T15:05:17.818Z,5.65
2023-04-24T15:07:44.884Z,6.82
2023-04-24T15:10:11.703Z,6.32
2023-04-24T15:12:38.235Z,6.53
2023-04-24T15:15:05.773Z,6.50
2023-04-24T15:17:32.408Z,6.50
2023-04-24T15:19:59.136Z,5.68
2023-04-24T15:22:25.860Z,6.38
2023-04-24T15:24:52.448Z,5.40
2023-04-24T15:27:19.032Z,5.38
2023-04-24T15:29:45.533Z,5.00
2023-04-24T15:32:12.082Z,5.30
2023-04-24T15:34:38.592Z,5.72
2023-04-24T15:37:05.262Z,5.05
2023-04-24T15:39:31.798Z,5.10
2023-04-24T15:41:58.506Z,5.30
2023-04-24T15:44:25.010Z,4.97
2023-04-24T15:46:52.430Z,4.88
2023-04-24T15:49:19.501Z,6.20
2023-04-24T15:51:46.059Z,5.47
2023-04-24T15:54:12.625Z,5.30
2023-04-24T15:56:39.101Z,4.95
2023-04-24T15:59:06.389Z,5.60
2023-04-24T16:01:33.802Z,5.45
2023-04-24T16:04:00.669Z,4.95
2023-04-24T16:06:27.920Z,4.88
2023-04-24T16:08:56.598Z,4.70
2023-04-24T16:11:24.677Z,4.57
2023-04-24T16:13:51.201Z,4.55
2023-04-24T16:16:17.843Z,4.70
2023-04-24T16:18:44.678Z,4.65
2023-04-24T16:21:11.273Z,4.97
2023-04-24T16:23:37.827Z,4.90
2023-04-24T16:26:04.527Z,4.50
2023-04-24T16:28:31.177Z,4.75
2023-04-24T16:30:58.262Z,4.63
2023-04-24T16:33:26.471Z,6.82
2023-04-24T16:35:55.716Z,5.20
2023-04-24T16:38:22.329Z,5.45
2023-04-24T16:40:48.940Z,5.38
2023-04-24T16:43:15.595Z,5.22
2023-04-24T16:45:42.286Z,4.90
2023-04-24T16:48:11.241Z,5.15
2023-04-24T16:50:38.093Z,5.53
2023-04-24T16:53:05.386Z,5.20
2023-04-24T16:55:31.932Z,5.00
2023-04-24T16:57:58.449Z,5.97
2023-04-24T17:00:24.958Z,5.25
2023-04-24T17:02:51.811Z,5.55
2023-04-24T17:05:20.358Z,6.20
2023-04-24T17:07:46.987Z,5.70
2023-04-24T17:10:13.629Z,5.50
2023-04-24T17:12:40.473Z,5.75
2023-04-24T17:15:07.466Z,5.80
2023-04-24T17:17:34.011Z,5.65
2023-04-24T17:20:05.797Z,6.88
2023-04-24T17:22:38.529Z,5.90
2023-04-24T17:25:05.503Z,6.25
2023-04-24T17:27:32.166Z,6.28
2023-04-24T17:29:59.301Z,5.72
2023-04-24T17:32:26.043Z,6.10
2023-04-24T17:34:52.753Z,5.55
2023-04-24T17:37:23.145Z,5.55
2023-04-24T17:39:50.018Z,5.60
2023-04-24T17:42:17.058Z,5.80
2023-04-24T17:44:43.653Z,5.43
2023-04-24T17:47:10.551Z,5.47
2023-04-24T17:49:38.645Z,5.60
2023-04-24T17:52:06.201Z,5.68
2023-04-24T17:54:32.991Z,5.20
2023-04-24T17:57:02.971Z,5.53
2023-04-24T17:59:29.580Z,5.72
2023-04-24T18:01:57.758Z,5.50
2023-04-24T18:04:26.116Z,5.53
2023-04-24T18:06:52.964Z,5.72
2023-04-24T18:09:21.134Z,5.55
2023-04-24T18:11:49.225Z,5.75
2023-04-24T18:14:16.245Z,5.50
2023-04-24T18:16:42.852Z,5.95
2023-04-24T18:19:09.336Z,6.03
2023-04-24T18:21:35.915Z,6.38
2023-04-24T18:24:02.528Z,6.70
2023-04-24T18:26:32.014Z,6.28
2023-04-24T18:28:58.579Z,6.18
2023-04-24T18:31:25.426Z,6.60
2023-04-24T18:33:54.164Z,6.68
2023-04-24T18:36:20.729Z,6.15
2023-04-24T18:38:47.558Z,6.63
2023-04-24T18:41:14.499Z,6.50
2023-04-24T18:43:41.223Z,6.88
2023-04-24T18:46:07.931Z,6.53
2023-04-24T18:48:34.610Z,6.45
2023-04-24T18:51:01.709Z,7.05
2023-04-24T18:53:28.351Z,7.13
2023-04-24T18:55:54.838Z,7.50
2023-04-24T18:58:21.623Z,6.57
2023-04-24T19:00:48.244Z,7.30
2023-04-24T19:03:15.094Z,7.55
2023-04-24T19:05:41.961Z,6.82
2023-04-24T19:08:08.530Z,7.10
2023-04-24T19:10:36.711Z,7.63
2023-04-24T19:13:03.486Z,7.40
2023-04-24T19:15:29.986Z,7.18
2023-04-24T19:17:56.892Z,7.70
2023-04-24T19:20:23.604Z,7.45
2023-04-24T19:22:50.884Z,6.40
2023-04-24T19:25:17.561Z,7.13
2023-04-24T19:27:44.168Z,7.38
2023-04-24T19:30:11.071Z,6.93
2023-04-24T19:32:37.673Z,6.88
2023-04-24T19:35:04.634Z,7.32
2023-04-24T19:37:32.289Z,7.53
2023-04-24T19:39:58.898Z,7.82
2023-04-24T19:42:42.078Z,7.13
2023-04-24T19:45:11.738Z,7.25
2023-04-24T19:47:38.511Z,7.30
2023-04-24T19:50:05.902Z,7.40
2023-04-24T19:52:32.479Z,7.78
2023-04-24T19:54:59.438Z,7.28
2023-04-24T19:57:25.988Z,8.20
2023-04-24T19:59:52.505Z,8.52
2023-04-24T20:02:19.304Z,7.22
2023-04-24T20:04:46.154Z,7.82
2023-04-24T20:07:12.983Z,7.25
2023-04-24T20:09:39.493Z,8.00
2023-04-24T20:12:06.140Z,6.75
2023-04-24T20:14:32.945Z,7.45
2023-04-24T20:16:59.508Z,7.40
2023-04-24T20:19:26.232Z,7.15
2023-04-24T20:21:52.965Z,7.25
2023-04-24T20:24:19.651Z,7.43
2023-04-24T20:26:47.762Z,7.25
2023-04-24T20:29:14.254Z,8.18
2023-04-24T20:31:41.608Z,7.97
2023-04-24T20:34:08.493Z,7.68
2023-04-24T20:36:35.112Z,7.80
2023-04-24T20:39:02.340Z,8.10
2023-04-24T20:41:30.323Z,8.35
2023-04-24T20:43:56.953Z,8.35
2023-04-24T20:46:23.660Z,8.02
2023-04-24T20:48:50.851Z,7.90
2023-04-24T20:51:19.560Z,7.90
2023-04-24T20:53:46.221Z,8.25
2023-04-24T20:56:12.807Z,7.82
2023-04-24T20:58:39.967Z,8.05
2023-04-24T21:01:06.615Z,8.13
2023-04-24T21:03:33.370Z,8.13
2023-04-24T21:06:00.159Z,8.40
2023-04-24T21:08:26.712Z,8.40
2023-04-24T21:10:53.362Z,7.97
2023-04-24T21:13:19.862Z,8.40
2023-04-24T21:15:46.576Z,8.48
2023-04-24T21:18:13.213Z,8.35
2023-04-24T21:20:39.810Z,9.20
2023-04-24T21:23:06.519Z,8.27
2023-04-24T21:25:33.096Z,7.75
2023-04-24T21:27:59.956Z,8.63
2023-04-24T21:30:26.931Z,8.15
2023-04-24T21:32:53.558Z,7.53
2023-04-24T21:35:20.274Z,8.63
2023-04-24T21:37:47.370Z,8.00
2023-04-24T21:40:15.961Z,8.93
2023-04-24T21:42:42.813Z,7.93
2023-04-24T21:45:10.328Z,8.32
2023-04-24T21:47:37.008Z,9.18
2023-04-24T21:50:04.951Z,8.10
2023-04-24T21:52:31.568Z,8.98
2023-04-24T21:54:58.292Z,9.13
2023-04-24T21:57:24.864Z,8.98
2023-04-24T21:59:51.558Z,8.02
2023-04-24T22:02:18.216Z,9.43
2023-04-24T22:04:45.327Z,9.20
2023-04-24T22:07:12.198Z,9.85
2023-04-24T22:09:38.724Z,8.55
2023-04-24T22:12:05.617Z,8.93
2023-04-24T22:14:32.264Z,9.52
2023-04-24T22:16:58.824Z,9.75
2023-04-24T22:19:26.413Z,9.52
2023-04-24T22:21:53.273Z,8.95
2023-04-24T22:24:20.117Z,8.68
2023-04-24T22:26:46.740Z,9.88
2023-04-24T22:29:13.259Z,9.13
2023-04-24T22:31:39.754Z,9.30
2023-04-24T22:34:06.418Z,9.43
2023-04-24T22:36:34.035Z,9.20
2023-04-24T22:39:00.642Z,9.98
2023-04-24T22:41:27.187Z,9.30
2023-04-24T22:43:53.882Z,9.57
2023-04-24T22:46:20.468Z,10.75
2023-04-24T22:48:49.212Z,9.68
2023-04-24T22:51:17.933Z,9.65
2023-04-24T22:53:44.739Z,9.68
2023-04-24T22:56:11.905Z,9.55
2023-04-24T22:58:38.654Z,9.73
2023-04-24T23:01:05.312Z,9.68
2023-04-24T23:03:32.457Z,9.02
2023-04-24T23:05:59.010Z,10.00
2023-04-24T23:08:25.519Z,9.25
2023-04-24T23:10:52.167Z,10.73
2023-04-24T23:13:19.298Z,11.45
2023-04-24T23:15:46.109Z,9.48
2023-04-24T23:18:12.633Z,9.68
2023-04-24T23:20:39.145Z,10.55
2023-04-24T23:23:05.802Z,9.55
2023-04-24T23:25:35.223Z,9.27
2023-04-24T23:28:01.796Z,9.38
2023-04-24T23:30:29.707Z,10.65
2023-04-24T23:32:56.491Z,10.13
2023-04-24T23:35:23.141Z,8.98
2023-04-24T23:37:49.663Z,8.90
2023-04-24T23:40:16.208Z,9.63
2023-04-24T23:42:42.785Z,8.93
2023-04-24T23:45:10.853Z,9.52
2023-04-24T23:47:38.018Z,8.95
2023-04-24T23:50:04.923Z,8.75
2023-04-24T23:52:31.555Z,11.30
2023-04-24T23:54:58.127Z,10.18
2023-04-24T23:57:24.685Z,8.75
2023-04-24T23:59:51.206Z,8.93
